createdAt,value
2023-09-13T00:02:13.450Z,8.38
2023-09-13T00:06:16.241Z,8.60
2023-09-13T00:10:19.976Z,8.63
2023-09-13T00:14:24.262Z,8.38
2023-09-13T00:18:26.942Z,6.97
2023-09-13T00:22:29.564Z,6.82
2023-09-13T00:26:32.216Z,8.30
2023-09-13T00:30:36.210Z,13.13
2023-09-13T00:34:38.911Z,9.90
2023-09-13T00:38:41.529Z,8.45
2023-09-13T00:42:44.233Z,10.93
2023-09-13T00:46:48.389Z,9.30
2023-09-13T00:50:54.532Z,10.48
2023-09-13T00:54:57.489Z,10.30
2023-09-13T00:59:00.792Z,8.43
2023-09-13T01:03:07.633Z,8.38
2023-09-13T01:07:11.153Z,10.70
2023-09-13T01:11:14.050Z,10.07
2023-09-13T01:15:16.996Z,10.90
2023-09-13T01:19:40.145Z,9.68
2023-09-13T01:23:55.920Z,9.90
2023-09-13T01:28:13.684Z,10.43
2023-09-13T01:32:17.683Z,10.48
2023-09-13T01:36:20.364Z,13.02
2023-09-13T01:40:24.463Z,11.82
2023-09-13T01:44:29.030Z,11.73
2023-09-13T01:48:33.930Z,11.27
2023-09-13T01:52:36.863Z,10.77
2023-09-13T01:56:39.512Z,10.25
2023-09-13T02:00:42.594Z,13.70
2023-09-13T02:04:46.708Z,9.98
2023-09-13T02:08:49.383Z,10.55
2023-09-13T02:12:52.749Z,9.85
2023-09-13T02:17:00.303Z,11.77
2023-09-13T02:21:04.633Z,14.45
2023-09-13T02:25:08.215Z,12.00
2023-09-13T02:29:10.861Z,12.45
2023-09-13T02:33:13.590Z,10.55
2023-09-13T02:37:18.741Z,9.68
2023-09-13T02:41:21.632Z,12.15
2023-09-13T02:45:24.271Z,11.63
2023-09-13T02:49:27.042Z,9.68
2023-09-13T02:53:32.227Z,13.85
2023-09-13T02:57:35.133Z,10.68
2023-09-13T03:01:37.879Z,11.02
2023-09-13T03:05:40.599Z,11.90
2023-09-13T03:09:45.544Z,11.07
2023-09-13T03:13:48.405Z,12.45
2023-09-13T03:17:51.954Z,8.55
2023-09-13T03:21:54.703Z,9.75
2023-09-13T03:25:58.724Z,10.32
2023-09-13T03:30:01.439Z,11.00
2023-09-13T03:34:04.525Z,9.77
2023-09-13T03:38:07.197Z,10.10
2023-09-13T03:42:11.206Z,11.07
2023-09-13T03:46:14.077Z,10.10
2023-09-13T03:50:16.885Z,13.88
2023-09-13T03:54:19.603Z,9.82
2023-09-13T03:58:23.751Z,10.52
2023-09-13T04:02:26.621Z,9.65
2023-09-13T04:06:29.507Z,10.95
2023-09-13T04:10:32.279Z,10.60
2023-09-13T04:14:36.323Z,6.78
2023-09-13T04:18:38.996Z,11.63
2023-09-13T04:22:41.791Z,9.88
2023-09-13T04:26:44.449Z,9.65
2023-09-13T04:30:48.609Z,7.40
2023-09-13T04:34:51.273Z,9.02
2023-09-13T04:38:53.925Z,10.23
2023-09-13T04:43:17.422Z,9.13
2023-09-13T04:47:21.502Z,10.75
2023-09-13T04:51:24.220Z,7.85
2023-09-13T04:55:27.887Z,12.40
2023-09-13T04:59:44.260Z,7.25
2023-09-13T05:03:49.693Z,8.63
2023-09-13T05:07:54.459Z,7.85
2023-09-13T05:11:57.181Z,10.32
2023-09-13T05:15:59.902Z,9.65
2023-09-13T05:20:04.032Z,9.63
2023-09-13T05:24:07.151Z,7.82
2023-09-13T05:28:09.861Z,6.90
2023-09-13T05:32:12.893Z,7.97
2023-09-13T05:36:17.416Z,10.00
2023-09-13T05:40:20.143Z,8.25
2023-09-13T05:44:25.065Z,10.75
2023-09-13T05:48:27.730Z,8.07
2023-09-13T05:52:34.241Z,10.05
2023-09-13T05:56:36.909Z,9.88
2023-09-13T06:00:40.097Z,8.18
2023-09-13T06:04:42.837Z,8.77
2023-09-13T06:08:47.109Z,7.35
2023-09-13T06:12:49.806Z,6.45
2023-09-13T06:16:52.639Z,7.60
2023-09-13T06:20:55.886Z,6.75
2023-09-13T06:25:00.702Z,7.72
2023-09-13T06:33:12.588Z,8.35
2023-09-13T06:37:16.250Z,7.75
2023-09-13T06:41:20.547Z,7.18
2023-09-13T06:45:27.327Z,6.13
2023-09-13T06:49:32.159Z,7.45
2023-09-13T06:53:35.904Z,6.32
2023-09-13T06:57:43.179Z,8.05
2023-09-13T07:02:07.705Z,8.82
2023-09-13T07:06:09.196Z,6.10
2023-09-13T07:10:13.413Z,7.82
2023-09-13T07:14:18.199Z,6.65
2023-09-13T07:18:20.904Z,7.00
2023-09-13T07:22:23.628Z,4.93
2023-09-13T07:26:26.321Z,7.72
2023-09-13T07:30:30.517Z,7.68
2023-09-13T07:34:33.200Z,6.45
2023-09-13T07:38:36.188Z,4.75
2023-09-13T07:42:38.868Z,5.47
2023-09-13T07:46:42.958Z,5.45
2023-09-13T07:50:47.537Z,5.03
2023-09-13T07:54:50.255Z,6.22
2023-09-13T07:58:52.945Z,6.43
2023-09-13T08:02:57.542Z,6.10
2023-09-13T08:07:00.617Z,6.25
2023-09-13T08:11:04.787Z,6.88
2023-09-13T08:15:08.269Z,5.47
2023-09-13T08:19:12.420Z,4.15
2023-09-13T08:23:15.304Z,6.05
2023-09-13T08:27:18.274Z,5.40
2023-09-13T08:31:22.272Z,5.28
2023-09-13T08:35:26.904Z,5.22
2023-09-13T08:39:29.708Z,8.60
2023-09-13T08:43:34.427Z,6.40
2023-09-13T08:47:51.251Z,8.50
2023-09-13T08:52:02.956Z,4.80
2023-09-13T08:56:07.766Z,6.05
2023-09-13T09:00:10.954Z,6.57
2023-09-13T09:04:15.534Z,4.00
2023-09-13T09:08:20.271Z,6.55
2023-09-13T09:12:26.012Z,5.00
2023-09-13T09:16:29.326Z,6.40
2023-09-13T09:20:32.270Z,4.72
2023-09-13T09:24:36.285Z,5.50
2023-09-13T09:28:39.106Z,5.20
2023-09-13T09:32:41.955Z,5.18
2023-09-13T09:36:48.137Z,4.55
2023-09-13T09:40:52.550Z,5.05
2023-09-13T09:44:56.313Z,3.92
2023-09-13T09:48:59.284Z,5.75
2023-09-13T09:53:10.412Z,3.47
2023-09-13T09:57:21.892Z,6.65
2023-09-13T10:05:27.093Z,3.25
2023-09-13T10:09:48.427Z,4.93
2023-09-13T10:13:52.708Z,4.30
2023-09-13T10:17:57.288Z,3.63
2023-09-13T10:22:00.187Z,4.80
2023-09-13T10:26:04.858Z,3.25
2023-09-13T10:30:12.637Z,3.65
2023-09-13T10:34:20.659Z,3.13
2023-09-13T10:38:33.772Z,4.07
2023-09-13T10:42:36.592Z,3.38
2023-09-13T10:46:42.363Z,2.72
2023-09-13T10:50:45.111Z,3.38
2023-09-13T10:54:49.908Z,3.10
2023-09-13T10:58:55.863Z,3.08
2023-09-13T11:03:01.176Z,3.55
2023-09-13T11:07:06.005Z,3.05
2023-09-13T11:11:10.358Z,1.55
2023-09-13T11:15:20.678Z,2.72
2023-09-13T11:19:29.936Z,1.30
2023-09-13T11:24:00.106Z,1.95
2023-09-13T11:28:07.428Z,1.52
2023-09-13T11:40:26.685Z,3.20
2023-09-13T11:48:55.032Z,1.40
2023-09-13T11:53:18.136Z,2.22
2023-09-13T11:57:25.648Z,1.60
2023-09-13T12:01:32.921Z,1.50
2023-09-13T12:05:50.374Z,3.03
2023-09-13T12:10:07.504Z,2.58
2023-09-13T12:14:13.502Z,1.75
2023-09-13T12:18:22.867Z,1.88
2023-09-13T12:22:25.556Z,1.45
2023-09-13T12:26:29.948Z,1.65
2023-09-13T12:30:32.658Z,1.80
2023-09-13T12:34:35.726Z,1.85
2023-09-13T12:38:47.364Z,1.50
2023-09-13T12:42:51.590Z,1.42
2023-09-13T12:46:55.181Z,1.95
2023-09-13T12:50:57.857Z,2.10
2023-09-13T12:55:00.660Z,2.15
2023-09-13T12:59:04.736Z,1.77
2023-09-13T13:03:07.785Z,1.67
2023-09-13T13:07:10.897Z,1.30
2023-09-13T13:11:13.734Z,3.15
2023-09-13T13:15:18.037Z,2.38
2023-09-13T13:19:30.454Z,1.90
2023-09-13T13:23:35.424Z,1.42
2023-09-13T13:27:38.100Z,1.50
2023-09-13T13:31:42.239Z,2.03
2023-09-13T13:35:45.263Z,1.60
2023-09-13T13:39:47.952Z,1.58
2023-09-13T13:43:51.079Z,1.73
2023-09-13T13:47:55.117Z,1.42
2023-09-13T13:51:57.778Z,2.40
2023-09-13T13:56:01.016Z,1.98
2023-09-13T14:00:04.629Z,1.45
2023-09-13T14:04:08.737Z,1.75
2023-09-13T14:08:11.600Z,1.95
2023-09-13T14:12:14.272Z,2.13
2023-09-13T14:16:16.924Z,2.65
2023-09-13T14:20:21.799Z,1.48
2023-09-13T14:24:24.482Z,1.70
2023-09-13T14:28:27.501Z,1.17
2023-09-13T14:32:30.204Z,1.83
2023-09-13T14:36:34.319Z,2.30
2023-09-13T14:40:36.988Z,3.17
2023-09-13T14:44:40.333Z,2.60
2023-09-13T14:48:43.224Z,2.13
2023-09-13T14:52:47.477Z,1.40
2023-09-13T14:56:50.301Z,1.38
2023-09-13T15:00:53.055Z,1.55
2023-09-13T15:04:55.852Z,2.13
2023-09-13T15:08:59.912Z,2.28
2023-09-13T15:13:03.703Z,1.48
2023-09-13T15:17:06.636Z,1.60
2023-09-13T15:21:09.276Z,1.65
2023-09-13T15:25:14.171Z,2.72
2023-09-13T15:29:16.836Z,1.17
2023-09-13T15:33:19.868Z,1.40
2023-09-13T15:37:22.591Z,2.20
2023-09-13T15:41:26.679Z,1.38
2023-09-13T15:45:29.437Z,1.52
2023-09-13T15:49:32.202Z,1.27
2023-09-13T15:53:34.945Z,1.60
2023-09-13T15:57:39.174Z,1.35
2023-09-13T16:01:42.023Z,2.00
2023-09-13T16:05:45.137Z,1.50
2023-09-13T16:09:47.993Z,1.77
2023-09-13T16:13:52.224Z,1.60
2023-09-13T16:17:54.933Z,3.15
2023-09-13T16:21:58.277Z,1.80
2023-09-13T16:26:01.006Z,2.25
2023-09-13T16:30:07.162Z,2.78
2023-09-13T16:34:09.955Z,1.75
2023-09-13T16:38:12.693Z,1.90
2023-09-13T16:42:15.446Z,3.22
2023-09-13T16:46:19.793Z,2.03
2023-09-13T16:50:22.515Z,3.65
2023-09-13T16:54:25.197Z,4.05
2023-09-13T16:58:27.923Z,1.40
2023-09-13T17:02:32.064Z,2.13
2023-09-13T17:06:35.182Z,1.70
2023-09-13T17:10:37.928Z,1.67
2023-09-13T17:14:41.495Z,2.47
2023-09-13T17:18:45.803Z,1.50
2023-09-13T17:22:48.707Z,2.60
2023-09-13T17:27:03.903Z,2.63
2023-09-13T17:31:12.234Z,2.95
2023-09-13T17:35:16.320Z,2.40
2023-09-13T17:39:19.009Z,3.58
2023-09-13T17:43:22.864Z,1.70
2023-09-13T17:47:25.941Z,2.10
2023-09-13T17:51:30.600Z,2.80
2023-09-13T17:55:33.559Z,2.28
2023-09-13T17:59:36.235Z,2.95
2023-09-13T18:03:40.949Z,5.28
2023-09-13T18:07:47.222Z,1.80
2023-09-13T18:11:52.949Z,2.78
2023-09-13T18:15:55.736Z,2.80
2023-09-13T18:19:58.774Z,2.45
2023-09-13T18:24:03.184Z,2.05
2023-09-13T18:28:06.862Z,2.25
2023-09-13T18:32:09.594Z,2.75
2023-09-13T18:36:12.351Z,2.75
2023-09-13T18:40:16.578Z,2.03
2023-09-13T18:44:19.512Z,2.22
2023-09-13T18:48:22.546Z,2.20
2023-09-13T18:52:25.253Z,2.40
2023-09-13T18:56:29.653Z,2.25
2023-09-13T19:00:33.564Z,4.10
2023-09-13T19:04:36.386Z,3.25
2023-09-13T19:08:39.263Z,3.33
2023-09-13T19:12:43.385Z,2.55
2023-09-13T19:16:46.184Z,2.33
2023-09-13T19:20:49.031Z,3.70
2023-09-13T19:24:57.438Z,5.10
2023-09-13T19:29:02.005Z,2.47
2023-09-13T19:33:07.361Z,2.50
2023-09-13T19:37:10.058Z,4.70
2023-09-13T19:41:16.688Z,3.10
2023-09-13T19:45:20.771Z,4.13
2023-09-13T19:49:23.511Z,3.67
2023-09-13T19:53:26.825Z,2.67
2023-09-13T19:57:31.743Z,2.63
2023-09-13T20:01:37.029Z,2.55
2023-09-13T20:05:40.082Z,3.60
2023-09-13T20:09:43.501Z,3.63
2023-09-13T20:13:46.232Z,3.90
2023-09-13T20:17:50.517Z,3.67
2023-09-13T20:21:53.261Z,3.75
2023-09-13T20:25:57.264Z,2.15
2023-09-13T20:30:00.013Z,3.72
2023-09-13T20:34:04.119Z,2.00
2023-09-13T20:38:08.325Z,3.90
2023-09-13T20:42:11.134Z,3.17
2023-09-13T20:46:13.938Z,4.93
2023-09-13T20:50:18.072Z,4.07
2023-09-13T20:54:23.081Z,3.58
2023-09-13T20:58:25.780Z,3.72
2023-09-13T21:02:28.470Z,3.78
2023-09-13T21:06:32.522Z,3.15
2023-09-13T21:10:35.228Z,3.88
2023-09-13T21:14:37.912Z,3.65
2023-09-13T21:18:40.650Z,3.10
2023-09-13T21:22:44.713Z,3.72
2023-09-13T21:26:50.881Z,5.53
2023-09-13T21:31:00.524Z,4.93
2023-09-13T21:35:06.033Z,3.83
2023-09-13T21:39:10.460Z,5.05
2023-09-13T21:43:13.124Z,4.90
2023-09-13T21:47:15.750Z,3.60
2023-09-13T21:51:18.434Z,3.20
2023-09-13T21:55:22.455Z,3.13
2023-09-13T21:59:27.197Z,3.95
2023-09-13T22:03:34.087Z,3.67
2023-09-13T22:07:36.944Z,3.97
2023-09-13T22:11:41.065Z,6.15
2023-09-13T22:15:43.839Z,4.85
2023-09-13T22:19:46.684Z,3.47
2023-09-13T22:23:49.437Z,3.97
2023-09-13T22:27:53.669Z,4.28
2023-09-13T22:32:05.187Z,4.15
2023-09-13T22:36:16.145Z,4.30
2023-09-13T22:40:23.350Z,4.90
2023-09-13T22:44:38.727Z,3.65
2023-09-13T22:48:42.756Z,4.05
2023-09-13T22:53:11.964Z,3.92
2023-09-13T22:57:14.729Z,4.07
2023-09-13T23:01:18.982Z,3.42
2023-09-13T23:05:21.769Z,3.92
2023-09-13T23:09:24.499Z,5.10
2023-09-13T23:13:27.107Z,3.83
2023-09-13T23:17:31.661Z,3.92
2023-09-13T23:21:34.347Z,6.45
2023-09-13T23:25:37.263Z,3.78
2023-09-13T23:29:39.920Z,4.45
2023-09-13T23:33:46.307Z,4.63
2023-09-13T23:37:48.980Z,4.97
2023-09-13T23:41:51.728Z,4.40
2023-09-13T23:45:54.473Z,4.45
2023-09-13T23:49:58.493Z,5.88
2023-09-13T23:54:01.135Z,5.65
2023-09-13T23:58:04.667Z,4.53
